sensor_id;sensor_type;location;lat;lon;timestamp;pressure;altitude;pressure_sealevel;temperature;humidity
47556;BME280;33291;46.222;26.460;2023-04-23T00:02:23;96533.31;;;6.72;86.54
47556;BME280;33291;46.222;26.460;2023-04-23T00:04:51;96537.06;;;6.68;86.51
47556;BME280;33291;46.222;26.460;2023-04-23T00:07:18;96527.06;;;6.63;86.70
47556;BME280;33291;46.222;26.460;2023-04-23T00:09:45;96532.69;;;6.57;87.01
47556;BME280;33291;46.222;26.460;2023-04-23T00:12:11;96527.84;;;6.52;87.22
47556;BME280;33291;46.222;26.460;2023-04-23T00:14:36;96529.13;;;6.47;87.18
47556;BME280;33291;46.222;26.460;2023-04-23T00:17:02;96519.44;;;6.37;87.38
47556;BME280;33291;46.222;26.460;2023-04-23T00:19:28;96520.28;;;6.38;87.14
47556;BME280;33291;46.222;26.460;2023-04-23T00:21:53;96524.84;;;6.34;87.34
47556;BME280;33291;46.222;26.460;2023-04-23T00:24:19;96530.84;;;6.35;87.54
47556;BME280;33291;46.222;26.460;2023-04-23T00:26:44;96512.91;;;6.20;87.51
47556;BME280;33291;46.222;26.460;2023-04-23T00:29:10;96526.56;;;6.22;87.67
47556;BME280;33291;46.222;26.460;2023-04-23T00:31:35;96529.69;;;6.15;87.72
47556;BME280;33291;46.222;26.460;2023-04-23T00:34:01;96525.41;;;6.02;88.21
47556;BME280;33291;46.222;26.460;2023-04-23T00:36:27;96539.19;;;6.03;88.30
47556;BME280;33291;46.222;26.460;2023-04-23T00:38:52;96503.53;;;5.82;88.17
47556;BME280;33291;46.222;26.460;2023-04-23T00:41:18;96528.31;;;5.98;88.33
47556;BME280;33291;46.222;26.460;2023-04-23T00:43:43;96529.47;;;5.94;88.17
47556;BME280;33291;46.222;26.460;2023-04-23T00:46:10;96533.31;;;5.88;88.16
47556;BME280;33291;46.222;26.460;2023-04-23T00:48:35;96533.31;;;5.88;88.47
47556;BME280;33291;46.222;26.460;2023-04-23T00:51:05;96531.44;;;5.90;88.03
47556;BME280;33291;46.222;26.460;2023-04-23T00:53:31;96523.78;;;5.88;87.89
47556;BME280;33291;46.222;26.460;2023-04-23T00:55:59;96535.16;;;5.99;87.76
47556;BME280;33291;46.222;26.460;2023-04-23T00:58:26;96530.38;;;5.93;87.63
47556;BME280;33291;46.222;26.460;2023-04-23T01:00:52;96525.44;;;5.90;87.28
47556;BME280;33291;46.222;26.460;2023-04-23T01:03:18;96523.19;;;5.85;86.99
47556;BME280;33291;46.222;26.460;2023-04-23T01:05:46;96512.22;;;5.81;86.84
47556;BME280;33291;46.222;26.460;2023-04-23T01:08:14;96527.41;;;5.86;86.78
47556;BME280;33291;46.222;26.460;2023-04-23T01:10:41;96518.66;;;5.76;87.12
47556;BME280;33291;46.222;26.460;2023-04-23T01:13:08;96529.97;;;5.86;86.90
47556;BME280;33291;46.222;26.460;2023-04-23T01:15:34;96531.25;;;5.80;87.38
47556;BME280;33291;46.222;26.460;2023-04-23T01:17:59;96533.09;;;5.78;87.59
47556;BME280;33291;46.222;26.460;2023-04-23T01:20:26;96533.09;;;5.78;87.41
47556;BME280;33291;46.222;26.460;2023-04-23T01:22:51;96520.34;;;5.64;88.14
47556;BME280;33291;46.222;26.460;2023-04-23T01:25:17;96530.03;;;5.73;87.67
47556;BME280;33291;46.222;26.460;2023-04-23T01:27:43;96523.84;;;5.76;87.25
47556;BME280;33291;46.222;26.460;2023-04-23T01:30:09;96529.38;;;5.82;87.05
47556;BME280;33291;46.222;26.460;2023-04-23T01:32:36;96525.75;;;5.85;86.82
47556;BME280;33291;46.222;26.460;2023-04-23T01:35:02;96527.28;;;5.87;86.79
47556;BME280;33291;46.222;26.460;2023-04-23T01:37:29;96536.91;;;5.85;86.55
47556;BME280;33291;46.222;26.460;2023-04-23T01:39:54;96519.25;;;5.79;86.57
47556;BME280;33291;46.222;26.460;2023-04-23T01:42:20;96520.50;;;5.74;86.39
47556;BME280;33291;46.222;26.460;2023-04-23T01:44:47;96518.16;;;5.70;87.30
47556;BME280;33291;46.222;26.460;2023-04-23T01:47:13;96521.78;;;5.68;87.33
47556;BME280;33291;46.222;26.460;2023-04-23T01:49:39;96519.91;;;5.70;86.76
47556;BME280;33291;46.222;26.460;2023-04-23T01:52:05;96530.25;;;5.70;86.88
47556;BME280;33291;46.222;26.460;2023-04-23T01:54:30;96519.09;;;5.69;86.89
47556;BME280;33291;46.222;26.460;2023-04-23T01:56:56;96510.94;;;5.63;86.97
47556;BME280;33291;46.222;26.460;2023-04-23T01:59:21;96511.03;;;5.61;86.89
47556;BME280;33291;46.222;26.460;2023-04-23T02:01:48;96525.31;;;5.67;87.19
47556;BME280;33291;46.222;26.460;2023-04-23T02:04:15;96524.38;;;5.68;86.81
47556;BME280;33291;46.222;26.460;2023-04-23T02:06:42;96519.31;;;5.66;87.08
47556;BME280;33291;46.222;26.460;2023-04-23T02:09:08;96516.84;;;5.65;86.73
47556;BME280;33291;46.222;26.460;2023-04-23T02:11:34;96515.88;;;5.66;86.77
47556;BME280;33291;46.222;26.460;2023-04-23T02:14:01;96521.56;;;5.71;86.51
47556;BME280;33291;46.222;26.460;2023-04-23T02:16:26;96525.09;;;5.70;86.94
47556;BME280;33291;46.222;26.460;2023-04-23T02:18:53;96515.66;;;5.69;87.14
47556;BME280;33291;46.222;26.460;2023-04-23T02:21:20;96515.41;;;5.61;87.04
47556;BME280;33291;46.222;26.460;2023-04-23T02:23:47;96518.91;;;5.60;86.76
47556;BME280;33291;46.222;26.460;2023-04-23T02:26:12;96521.50;;;5.60;87.29
47556;BME280;33291;46.222;26.460;2023-04-23T02:28:37;96517.16;;;5.60;87.12
47556;BME280;33291;46.222;26.460;2023-04-23T02:31:03;96520.47;;;5.62;87.29
47556;BME280;33291;46.222;26.460;2023-04-23T02:33:29;96521.50;;;5.60;87.25
47556;BME280;33291;46.222;26.460;2023-04-23T02:35:54;96513.94;;;5.57;87.10
47556;BME280;33291;46.222;26.460;2023-04-23T02:38:20;96514.16;;;5.54;87.16
47556;BME280;33291;46.222;26.460;2023-04-23T02:40:45;96504.47;;;5.44;87.43
47556;BME280;33291;46.222;26.460;2023-04-23T02:43:11;96516.03;;;5.51;87.77
47556;BME280;33291;46.222;26.460;2023-04-23T02:45:36;96501.63;;;5.36;88.56
47556;BME280;33291;46.222;26.460;2023-04-23T02:48:02;96515.03;;;5.41;88.61
47556;BME280;33291;46.222;26.460;2023-04-23T02:50:28;96505.81;;;5.37;88.15
47556;BME280;33291;46.222;26.460;2023-04-23T02:52:53;96513.56;;;5.37;88.25
47556;BME280;33291;46.222;26.460;2023-04-23T02:55:19;96512.25;;;5.31;88.40
47556;BME280;33291;46.222;26.460;2023-04-23T02:57:44;96514.09;;;5.42;87.73
47556;BME280;33291;46.222;26.460;2023-04-23T03:00:10;96502.09;;;5.41;88.23
47556;BME280;33291;46.222;26.460;2023-04-23T03:02:37;96514.81;;;5.44;88.02
47556;BME280;33291;46.222;26.460;2023-04-23T03:05:03;96514.41;;;5.38;88.14
47556;BME280;33291;46.222;26.460;2023-04-23T03:07:28;96513.56;;;5.37;88.42
47556;BME280;33291;46.222;26.460;2023-04-23T03:09:54;96519.59;;;5.38;88.10
47556;BME280;33291;46.222;26.460;2023-04-23T03:12:20;96516.91;;;5.39;87.93
47556;BME280;33291;46.222;26.460;2023-04-23T03:14:45;96518.53;;;5.40;88.36
47556;BME280;33291;46.222;26.460;2023-04-23T03:17:10;96506.88;;;5.34;88.30
47556;BME280;33291;46.222;26.460;2023-04-23T03:19:36;96501.72;;;5.34;88.12
47556;BME280;33291;46.222;26.460;2023-04-23T03:22:01;96509.03;;;5.41;87.93
47556;BME280;33291;46.222;26.460;2023-04-23T03:24:33;96507.59;;;5.37;88.01
47556;BME280;33291;46.222;26.460;2023-04-23T03:26:58;96496.25;;;5.26;88.42
47556;BME280;33291;46.222;26.460;2023-04-23T03:29:24;96510.06;;;5.25;88.46
47556;BME280;33291;46.222;26.460;2023-04-23T03:31:50;96512.59;;;5.27;88.31
47556;BME280;33291;46.222;26.460;2023-04-23T03:34:15;96519.38;;;5.28;88.30
47556;BME280;33291;46.222;26.460;2023-04-23T03:36:41;96517.53;;;5.30;88.81
47556;BME280;33291;46.222;26.460;2023-04-23T03:39:09;96522.50;;;5.33;88.54
47556;BME280;33291;46.222;26.460;2023-04-23T03:41:35;96524.97;;;5.34;88.93
47556;BME280;33291;46.222;26.460;2023-04-23T03:44:00;96509.25;;;5.25;88.48
47556;BME280;33291;46.222;26.460;2023-04-23T03:46:26;96528.56;;;5.32;88.63
47556;BME280;33291;46.222;26.460;2023-04-23T03:48:51;96525.06;;;5.33;88.26
47556;BME280;33291;46.222;26.460;2023-04-23T03:51:16;96524.88;;;5.36;88.46
47556;BME280;33291;46.222;26.460;2023-04-23T03:53:43;96532.59;;;5.36;88.17
47556;BME280;33291;46.222;26.460;2023-04-23T03:56:09;96508.88;;;5.18;88.94
47556;BME280;33291;46.222;26.460;2023-04-23T03:58:34;96527.44;;;5.23;89.24
47556;BME280;33291;46.222;26.460;2023-04-23T04:01:00;96531.06;;;5.21;89.46
47556;BME280;33291;46.222;26.460;2023-04-23T04:03:25;96532.50;;;5.25;89.04
47556;BME280;33291;46.222;26.460;2023-04-23T04:05:51;96538.41;;;5.27;89.63
47556;BME280;33291;46.222;26.460;2023-04-23T04:08:16;96521.78;;;5.18;89.72
47556;BME280;33291;46.222;26.460;2023-04-23T04:10:42;96508.75;;;5.07;90.12
47556;BME280;33291;46.222;26.460;2023-04-23T04:13:07;96537.88;;;5.22;90.39
47556;BME280;33291;46.222;26.460;2023-04-23T04:15:33;96528.19;;;5.12;91.00
47556;BME280;33291;46.222;26.460;2023-04-23T04:17:58;96543.97;;;5.21;90.69
47556;BME280;33291;46.222;26.460;2023-04-23T04:20:26;96552.94;;;5.28;90.96
47556;BME280;33291;46.222;26.460;2023-04-23T04:22:53;96543.97;;;5.33;90.56
47556;BME280;33291;46.222;26.460;2023-04-23T04:25:19;96552.00;;;5.42;90.30
47556;BME280;33291;46.222;26.460;2023-04-23T04:27:46;96556.75;;;5.48;90.44
47556;BME280;33291;46.222;26.460;2023-04-23T04:30:12;96556.03;;;5.59;90.67
47556;BME280;33291;46.222;26.460;2023-04-23T04:32:38;96557.34;;;5.64;90.47
47556;BME280;33291;46.222;26.460;2023-04-23T04:35:05;96555.88;;;5.73;89.46
47556;BME280;33291;46.222;26.460;2023-04-23T04:37:33;96551.19;;;5.78;88.75
47556;BME280;33291;46.222;26.460;2023-04-23T04:39:59;96550.47;;;5.89;88.54
47556;BME280;33291;46.222;26.460;2023-04-23T04:42:26;96523.19;;;5.85;87.94
47556;BME280;33291;46.222;26.460;2023-04-23T04:44:51;96560.13;;;6.11;87.41
47556;BME280;33291;46.222;26.460;2023-04-23T04:47:17;96561.34;;;6.18;86.83
47556;BME280;33291;46.222;26.460;2023-04-23T04:49:43;96566.41;;;6.20;86.65
47556;BME280;33291;46.222;26.460;2023-04-23T04:52:09;96566.69;;;6.28;86.43
47556;BME280;33291;46.222;26.460;2023-04-23T04:54:35;96532.78;;;6.20;85.62
47556;BME280;33291;46.222;26.460;2023-04-23T04:57:00;96563.50;;;6.49;85.28
47556;BME280;33291;46.222;26.460;2023-04-23T04:59:26;96573.97;;;6.58;84.99
47556;BME280;33291;46.222;26.460;2023-04-23T05:01:52;96559.88;;;6.63;84.57
47556;BME280;33291;46.222;26.460;2023-04-23T05:04:18;96562.72;;;6.71;84.31
47556;BME280;33291;46.222;26.460;2023-04-23T05:06:43;96563.94;;;6.78;83.54
47556;BME280;33291;46.222;26.460;2023-04-23T05:09:10;96553.69;;;6.76;83.13
47556;BME280;33291;46.222;26.460;2023-04-23T05:11:35;96558.06;;;6.87;83.02
47556;BME280;33291;46.222;26.460;2023-04-23T05:14:01;96558.22;;;6.97;82.66
47556;BME280;33291;46.222;26.460;2023-04-23T05:16:28;96563.75;;;7.04;81.83
47556;BME280;33291;46.222;26.460;2023-04-23T05:18:54;96545.50;;;7.05;81.88
47556;BME280;33291;46.222;26.460;2023-04-23T05:21:19;96551.03;;;7.12;81.64
47556;BME280;33291;46.222;26.460;2023-04-23T05:23:44;96543.75;;;7.17;81.20
47556;BME280;33291;46.222;26.460;2023-04-23T05:26:10;96545.41;;;7.18;80.85
47556;BME280;33291;46.222;26.460;2023-04-23T05:28:35;96549.66;;;7.31;80.37
47556;BME280;33291;46.222;26.460;2023-04-23T05:31:01;96539.28;;;7.31;80.07
47556;BME280;33291;46.222;26.460;2023-04-23T05:33:27;96552.00;;;7.45;80.11
47556;BME280;33291;46.222;26.460;2023-04-23T05:35:53;96548.94;;;7.51;80.00
47556;BME280;33291;46.222;26.460;2023-04-23T05:38:19;96551.06;;;7.57;79.95
47556;BME280;33291;46.222;26.460;2023-04-23T05:40:44;96549.97;;;7.71;79.57
47556;BME280;33291;46.222;26.460;2023-04-23T05:43:11;96556.22;;;7.80;79.08
47556;BME280;33291;46.222;26.460;2023-04-23T05:45:36;96557.16;;;7.90;78.50
47556;BME280;33291;46.222;26.460;2023-04-23T05:48:02;96552.91;;;8.00;77.75
47556;BME280;33291;46.222;26.460;2023-04-23T05:50:28;96549.09;;;8.05;76.96
47556;BME280;33291;46.222;26.460;2023-04-23T05:52:53;96529.31;;;8.04;76.54
47556;BME280;33291;46.222;26.460;2023-04-23T05:55:19;96558.22;;;8.31;76.04
47556;BME280;33291;46.222;26.460;2023-04-23T05:57:45;96542.41;;;8.34;75.69
47556;BME280;33291;46.222;26.460;2023-04-23T06:00:11;96556.25;;;8.56;75.25
47556;BME280;33291;46.222;26.460;2023-04-23T06:02:38;96554.56;;;8.66;74.67
47556;BME280;33291;46.222;26.460;2023-04-23T06:05:04;96546.75;;;8.78;74.34
47556;BME280;33291;46.222;26.460;2023-04-23T06:07:30;96555.59;;;8.96;73.75
47556;BME280;33291;46.222;26.460;2023-04-23T06:09:56;96549.38;;;9.09;72.87
47556;BME280;33291;46.222;26.460;2023-04-23T06:12:21;96545.75;;;9.21;72.22
47556;BME280;33291;46.222;26.460;2023-04-23T06:14:47;96550.63;;;9.35;71.81
47556;BME280;33291;46.222;26.460;2023-04-23T06:17:12;96528.19;;;9.34;71.38
47556;BME280;33291;46.222;26.460;2023-04-23T06:19:38;96547.28;;;9.54;71.00
47556;BME280;33291;46.222;26.460;2023-04-23T06:22:03;96550.72;;;9.65;70.86
47556;BME280;33291;46.222;26.460;2023-04-23T06:24:29;96538.47;;;9.76;70.32
47556;BME280;33291;46.222;26.460;2023-04-23T06:26:55;96542.16;;;9.84;69.61
47556;BME280;33291;46.222;26.460;2023-04-23T06:29:22;96545.06;;;10.00;69.22
47556;BME280;33291;46.222;26.460;2023-04-23T06:31:47;96523.03;;;9.94;68.89
47556;BME280;33291;46.222;26.460;2023-04-23T06:34:13;96544.00;;;10.12;67.94
47556;BME280;33291;46.222;26.460;2023-04-23T06:36:38;96535.78;;;10.17;67.72
47556;BME280;33291;46.222;26.460;2023-04-23T06:39:04;96536.63;;;10.18;67.55
47556;BME280;33291;46.222;26.460;2023-04-23T06:41:29;96535.94;;;10.25;67.25
47556;BME280;33291;46.222;26.460;2023-04-23T06:43:55;96538.00;;;10.31;66.83
47556;BME280;33291;46.222;26.460;2023-04-23T06:46:20;96540.22;;;10.46;65.82
47556;BME280;33291;46.222;26.460;2023-04-23T06:48:46;96545.56;;;10.64;64.99
47556;BME280;33291;46.222;26.460;2023-04-23T06:51:11;96538.81;;;10.81;64.46
47556;BME280;33291;46.222;26.460;2023-04-23T06:53:37;96544.00;;;11.00;63.08
47556;BME280;33291;46.222;26.460;2023-04-23T06:56:02;96540.78;;;11.26;62.14
47556;BME280;33291;46.222;26.460;2023-04-23T06:58:28;96545.50;;;11.50;61.20
47556;BME280;33291;46.222;26.460;2023-04-23T07:00:57;96539.91;;;11.73;59.48
47556;BME280;33291;46.222;26.460;2023-04-23T07:03:29;96539.63;;;12.04;58.30
47556;BME280;33291;46.222;26.460;2023-04-23T07:05:56;96534.69;;;12.29;55.70
47556;BME280;33291;46.222;26.460;2023-04-23T07:08:21;96525.81;;;12.39;55.08
47556;BME280;33291;46.222;26.460;2023-04-23T07:10:47;96530.63;;;12.52;54.97
47556;BME280;33291;46.222;26.460;2023-04-23T07:13:12;96528.78;;;12.62;53.85
47556;BME280;33291;46.222;26.460;2023-04-23T07:15:38;96518.59;;;12.77;51.63
47556;BME280;33291;46.222;26.460;2023-04-23T07:18:04;96527.72;;;13.00;50.73
47556;BME280;33291;46.222;26.460;2023-04-23T07:20:31;96527.66;;;13.09;50.27
47556;BME280;33291;46.222;26.460;2023-04-23T07:22:57;96527.75;;;13.26;49.79
47556;BME280;33291;46.222;26.460;2023-04-23T07:25:23;96511.31;;;13.33;49.12
47556;BME280;33291;46.222;26.460;2023-04-23T07:27:49;96528.94;;;13.58;47.68
47556;BME280;33291;46.222;26.460;2023-04-23T07:30:15;96520.63;;;13.71;47.58
47556;BME280;33291;46.222;26.460;2023-04-23T07:32:41;96515.28;;;13.80;47.41
47556;BME280;33291;46.222;26.460;2023-04-23T07:35:07;96529.22;;;13.97;46.49
47556;BME280;33291;46.222;26.460;2023-04-23T07:37:35;96524.00;;;14.06;45.27
47556;BME280;33291;46.222;26.460;2023-04-23T07:40:00;96508.81;;;14.17;44.39
47556;BME280;33291;46.222;26.460;2023-04-23T07:42:26;96521.28;;;14.32;43.91
47556;BME280;33291;46.222;26.460;2023-04-23T07:44:52;96505.22;;;14.51;41.42
47556;BME280;33291;46.222;26.460;2023-04-23T07:47:18;96516.09;;;14.65;41.86
47556;BME280;33291;46.222;26.460;2023-04-23T07:49:43;96509.34;;;14.79;40.54
47556;BME280;33291;46.222;26.460;2023-04-23T07:52:09;96510.53;;;14.92;39.75
47556;BME280;33291;46.222;26.460;2023-04-23T07:54:34;96507.06;;;15.00;38.72
47556;BME280;33291;46.222;26.460;2023-04-23T07:57:00;96498.53;;;15.06;36.98
47556;BME280;33291;46.222;26.460;2023-04-23T07:59:25;96495.53;;;15.18;36.98
47556;BME280;33291;46.222;26.460;2023-04-23T08:01:51;96488.59;;;15.33;34.27
47556;BME280;33291;46.222;26.460;2023-04-23T08:04:16;96492.16;;;15.49;34.39
47556;BME280;33291;46.222;26.460;2023-04-23T08:06:42;96493.09;;;15.64;34.59
47556;BME280;33291;46.222;26.460;2023-04-23T08:09:07;96476.84;;;15.69;33.60
47556;BME280;33291;46.222;26.460;2023-04-23T08:11:33;96478.13;;;15.81;32.55
47556;BME280;33291;46.222;26.460;2023-04-23T08:13:59;96471.75;;;15.67;33.09
47556;BME280;33291;46.222;26.460;2023-04-23T08:16:26;96466.63;;;15.74;33.36
47556;BME280;33291;46.222;26.460;2023-04-23T08:18:51;96470.69;;;15.93;34.36
47556;BME280;33291;46.222;26.460;2023-04-23T08:21:17;96475.13;;;16.15;33.47
47556;BME280;33291;46.222;26.460;2023-04-23T08:23:42;96475.06;;;16.24;33.86
47556;BME280;33291;46.222;26.460;2023-04-23T08:26:08;96465.59;;;16.38;32.27
47556;BME280;33291;46.222;26.460;2023-04-23T08:28:34;96455.25;;;16.36;31.59
47556;BME280;33291;46.222;26.460;2023-04-23T08:31:00;96465.03;;;16.50;32.72
47556;BME280;33291;46.222;26.460;2023-04-23T08:33:25;96466.47;;;16.53;31.50
47556;BME280;33291;46.222;26.460;2023-04-23T08:35:51;96460.47;;;16.44;31.18
47556;BME280;33291;46.222;26.460;2023-04-23T08:38:17;96457.97;;;16.28;29.50
47556;BME280;33291;46.222;26.460;2023-04-23T08:40:44;96462.88;;;16.31;30.85
47556;BME280;33291;46.222;26.460;2023-04-23T08:43:37;96458.31;;;16.25;30.09
47556;BME280;33291;46.222;26.460;2023-04-23T08:46:10;96447.66;;;16.18;28.51
47556;BME280;33291;46.222;26.460;2023-04-23T08:48:37;96453.81;;;16.10;28.31
47556;BME280;33291;46.222;26.460;2023-04-23T08:51:04;96460.22;;;16.08;28.05
47556;BME280;33291;46.222;26.460;2023-04-23T08:53:31;96456.84;;;15.99;27.78
47556;BME280;33291;46.222;26.460;2023-04-23T08:55:58;96451.78;;;15.89;27.02
47556;BME280;33291;46.222;26.460;2023-04-23T08:58:24;96458.97;;;15.95;27.35
47556;BME280;33291;46.222;26.460;2023-04-23T09:00:52;96461.25;;;15.98;26.36
47556;BME280;33291;46.222;26.460;2023-04-23T09:03:19;96449.13;;;15.97;25.88
47556;BME280;33291;46.222;26.460;2023-04-23T09:05:46;96452.75;;;15.96;26.52
47556;BME280;33291;46.222;26.460;2023-04-23T09:08:12;96447.84;;;15.93;26.41
47556;BME280;33291;46.222;26.460;2023-04-23T09:10:39;96450.00;;;15.90;27.02
47556;BME280;33291;46.222;26.460;2023-04-23T09:13:07;96453.28;;;15.92;27.01
47556;BME280;33291;46.222;26.460;2023-04-23T09:15:32;96456.88;;;15.91;26.26
47556;BME280;33291;46.222;26.460;2023-04-23T09:18:03;96443.97;;;15.81;25.45
47556;BME280;33291;46.222;26.460;2023-04-23T09:20:28;96448.56;;;15.79;26.14
47556;BME280;33291;46.222;26.460;2023-04-23T09:22:54;96442.50;;;15.78;24.82
47556;BME280;33291;46.222;26.460;2023-04-23T09:25:21;96444.78;;;15.81;25.55
47556;BME280;33291;46.222;26.460;2023-04-23T09:27:48;96430.03;;;15.72;24.93
47556;BME280;33291;46.222;26.460;2023-04-23T09:30:15;96446.59;;;15.81;25.34
47556;BME280;33291;46.222;26.460;2023-04-23T09:32:42;96438.56;;;15.83;25.36
47556;BME280;33291;46.222;26.460;2023-04-23T09:35:10;96435.75;;;15.84;24.46
47556;BME280;33291;46.222;26.460;2023-04-23T09:37:40;96433.28;;;15.83;23.00
47556;BME280;33291;46.222;26.460;2023-04-23T09:40:06;96439.84;;;15.87;22.61
47556;BME280;33291;46.222;26.460;2023-04-23T09:42:35;96440.81;;;15.86;22.82
47556;BME280;33291;46.222;26.460;2023-04-23T09:45:06;96438.66;;;15.89;22.36
47556;BME280;33291;46.222;26.460;2023-04-23T09:47:56;96438.38;;;15.84;22.38
47556;BME280;33291;46.222;26.460;2023-04-23T09:50:35;96433.28;;;15.83;23.32
47556;BME280;33291;46.222;26.460;2023-04-23T09:53:03;96428.41;;;15.79;24.89
47556;BME280;33291;46.222;26.460;2023-04-23T09:55:34;96428.03;;;15.83;26.16
47556;BME280;33291;46.222;26.460;2023-04-23T09:58:06;96428.69;;;15.85;26.70
47556;BME280;33291;46.222;26.460;2023-04-23T10:00:36;96420.34;;;15.81;27.06
47556;BME280;33291;46.222;26.460;2023-04-23T10:03:03;96428.41;;;15.79;26.78
47556;BME280;33291;46.222;26.460;2023-04-23T10:05:29;96422.16;;;15.80;26.41
47556;BME280;33291;46.222;26.460;2023-04-23T10:07:56;96415.94;;;15.73;26.78
47556;BME280;33291;46.222;26.460;2023-04-23T10:10:24;96422.97;;;15.73;27.30
47556;BME280;33291;46.222;26.460;2023-04-23T10:12:51;96426.25;;;15.75;27.09
47556;BME280;33291;46.222;26.460;2023-04-23T10:15:22;96429.88;;;15.74;26.58
47556;BME280;33291;46.222;26.460;2023-04-23T10:17:49;96421.53;;;15.70;26.64
47556;BME280;33291;46.222;26.460;2023-04-23T10:20:15;96418.22;;;15.68;27.41
47556;BME280;33291;46.222;26.460;2023-04-23T10:22:43;96422.50;;;15.69;28.32
47556;BME280;33291;46.222;26.460;2023-04-23T10:25:10;96429.41;;;15.70;29.13
47556;BME280;33291;46.222;26.460;2023-04-23T10:27:38;96421.22;;;15.65;30.60
47556;BME280;33291;46.222;26.460;2023-04-23T10:30:06;96419.78;;;15.54;30.85
47556;BME280;33291;46.222;26.460;2023-04-23T10:32:35;96429.81;;;15.51;32.09
47556;BME280;33291;46.222;26.460;2023-04-23T10:35:03;96434.13;;;15.43;32.48
47556;BME280;33291;46.222;26.460;2023-04-23T10:37:30;96478.72;;;15.43;34.14
47556;BME280;33291;46.222;26.460;2023-04-23T10:40:08;96445.63;;;15.34;33.28
47556;BME280;33291;46.222;26.460;2023-04-23T10:42:40;96443.41;;;15.15;34.71
47556;BME280;33291;46.222;26.460;2023-04-23T10:45:13;96441.78;;;15.05;35.53
47556;BME280;33291;46.222;26.460;2023-04-23T10:47:41;96433.13;;;14.97;36.84
47556;BME280;33291;46.222;26.460;2023-04-23T10:50:29;96449.69;;;14.97;36.25
47556;BME280;33291;46.222;26.460;2023-04-23T10:53:00;96409.38;;;14.82;35.41
47556;BME280;33291;46.222;26.460;2023-04-23T10:55:28;96422.84;;;14.79;36.77
47556;BME280;33291;46.222;26.460;2023-04-23T10:58:01;96431.38;;;14.81;38.59
47556;BME280;33291;46.222;26.460;2023-04-23T11:00:27;96435.59;;;14.82;35.78
47556;BME280;33291;46.222;26.460;2023-04-23T11:02:54;96442.84;;;14.80;37.07
47556;BME280;33291;46.222;26.460;2023-04-23T11:05:23;96429.72;;;14.80;37.59
47556;BME280;33291;46.222;26.460;2023-04-23T11:08:06;96433.00;;;14.90;37.70
47556;BME280;33291;46.222;26.460;2023-04-23T11:10:33;96432.16;;;14.98;36.89
47556;BME280;33291;46.222;26.460;2023-04-23T11:13:19;96423.59;;;15.04;36.58
47556;BME280;33291;46.222;26.460;2023-04-23T11:15:45;96420.13;;;15.12;37.37
47556;BME280;33291;46.222;26.460;2023-04-23T11:18:11;96416.94;;;15.33;35.94
47556;BME280;33291;46.222;26.460;2023-04-23T11:20:36;96407.56;;;15.38;36.12
47556;BME280;33291;46.222;26.460;2023-04-23T11:23:04;96412.09;;;15.53;36.32
47556;BME280;33291;46.222;26.460;2023-04-23T11:25:30;96414.84;;;15.59;34.77
47556;BME280;33291;46.222;26.460;2023-04-23T11:27:57;96416.44;;;15.69;34.88
47556;BME280;33291;46.222;26.460;2023-04-23T11:30:29;96422.63;;;15.76;33.78
47556;BME280;33291;46.222;26.460;2023-04-23T11:32:56;96423.25;;;15.86;33.96
47556;BME280;33291;46.222;26.460;2023-04-23T11:35:25;96412.91;;;15.85;34.43
47556;BME280;33291;46.222;26.460;2023-04-23T11:37:53;96400.13;;;15.81;34.09
47556;BME280;33291;46.222;26.460;2023-04-23T11:40:21;96410.53;;;15.98;32.92
47556;BME280;33291;46.222;26.460;2023-04-23T11:42:50;96411.59;;;16.12;33.17
47556;BME280;33291;46.222;26.460;2023-04-23T11:47:49;96414.72;;;16.30;32.89
47556;BME280;33291;46.222;26.460;2023-04-23T11:50:30;96413.22;;;16.36;31.83
47556;BME280;33291;46.222;26.460;2023-04-23T11:53:07;96407.69;;;16.31;32.22
47556;BME280;33291;46.222;26.460;2023-04-23T11:55:33;96393.94;;;16.21;31.69
47556;BME280;33291;46.222;26.460;2023-04-23T11:57:59;96399.13;;;16.29;31.29
47556;BME280;33291;46.222;26.460;2023-04-23T12:00:25;96399.31;;;16.27;31.13
47556;BME280;33291;46.222;26.460;2023-04-23T12:05:26;96377.69;;;16.40;31.57
47556;BME280;33291;46.222;26.460;2023-04-23T12:07:52;96380.81;;;16.59;31.34
47556;BME280;33291;46.222;26.460;2023-04-23T12:10:18;96370.75;;;16.77;31.72
47556;BME280;33291;46.222;26.460;2023-04-23T12:12:48;96365.97;;;16.96;31.16
47556;BME280;33291;46.222;26.460;2023-04-23T12:15:14;96368.34;;;17.05;29.71
47556;BME280;33291;46.222;26.460;2023-04-23T12:17:39;96358.34;;;17.01;30.34
47556;BME280;33291;46.222;26.460;2023-04-23T12:20:09;96359.16;;;17.01;29.51
47556;BME280;33291;46.222;26.460;2023-04-23T12:22:37;96358.97;;;17.03;30.14
47556;BME280;33291;46.222;26.460;2023-04-23T12:25:04;96343.19;;;17.03;28.77
47556;BME280;33291;46.222;26.460;2023-04-23T12:27:32;96346.19;;;17.00;29.86
47556;BME280;33291;46.222;26.460;2023-04-23T12:30:03;96342.03;;;16.91;28.34
47556;BME280;33291;46.222;26.460;2023-04-23T12:32:28;96344.25;;;16.79;28.29
47556;BME280;33291;46.222;26.460;2023-04-23T12:34:54;96345.47;;;16.76;27.95
47556;BME280;33291;46.222;26.460;2023-04-23T12:37:28;96346.72;;;16.80;28.47
47556;BME280;33291;46.222;26.460;2023-04-23T12:39:55;96344.47;;;16.92;29.67
47556;BME280;33291;46.222;26.460;2023-04-23T12:42:23;96334.88;;;16.99;30.85
47556;BME280;33291;46.222;26.460;2023-04-23T12:44:49;96344.72;;;17.12;31.17
47556;BME280;33291;46.222;26.460;2023-04-23T12:47:15;96320.50;;;17.02;30.92
47556;BME280;33291;46.222;26.460;2023-04-23T12:49:44;96337.00;;;17.11;30.83
47556;BME280;33291;46.222;26.460;2023-04-23T12:52:10;96330.13;;;17.10;30.91
47556;BME280;33291;46.222;26.460;2023-04-23T12:54:38;96326.84;;;17.08;30.71
47556;BME280;33291;46.222;26.460;2023-04-23T12:57:08;96308.44;;;17.08;31.24
47556;BME280;33291;46.222;26.460;2023-04-23T12:59:35;96314.41;;;17.16;29.99